sensor_id;sensor_type;location;lat;lon;timestamp;P1;durP1;ratioP1;P2;durP2;ratioP2
31206;SDS011;17834;52.992;8.856;2023-07-30T00:00:39;5.85;;;3.47;;
31206;SDS011;17834;52.992;8.856;2023-07-30T00:03:05;4.07;;;2.75;;
31206;SDS011;17834;52.992;8.856;2023-07-30T00:05:30;6.88;;;3.38;;
31206;SDS011;17834;52.992;8.856;2023-07-30T00:07:56;7.07;;;3.38;;
31206;SDS011;17834;52.992;8.856;2023-07-30T00:10:21;4.90;;;3.28;;
31206;SDS011;17834;52.992;8.856;2023-07-30T00:12:47;5.88;;;3.42;;
31206;SDS011;17834;52.992;8.856;2023-07-30T00:15:13;6.53;;;4.03;;
31206;SDS011;17834;52.992;8.856;2023-07-30T00:17:38;5.85;;;3.70;;
31206;SDS011;17834;52.992;8.856;2023-07-30T00:20:05;6.57;;;3.30;;
31206;SDS011;17834;52.992;8.856;2023-07-30T00:22:32;6.28;;;3.72;;
31206;SDS011;17834;52.992;8.856;2023-07-30T00:24:58;6.70;;;4.15;;
31206;SDS011;17834;52.992;8.856;2023-07-30T00:27:24;8.88;;;4.82;;
31206;SDS011;17834;52.992;8.856;2023-07-30T00:29:49;6.57;;;4.22;;
31206;SDS011;17834;52.992;8.856;2023-07-30T00:32:15;7.28;;;4.10;;
31206;SDS011;17834;52.992;8.856;2023-07-30T00:34:42;9.82;;;4.13;;
31206;SDS011;17834;52.992;8.856;2023-07-30T00:37:07;7.07;;;4.15;;
31206;SDS011;17834;52.992;8.856;2023-07-30T00:39:33;6.57;;;3.83;;
31206;SDS011;17834;52.992;8.856;2023-07-30T00:41:58;8.02;;;3.70;;
31206;SDS011;17834;52.992;8.856;2023-07-30T00:44:24;7.10;;;4.07;;
31206;SDS011;17834;52.992;8.856;2023-07-30T00:46:50;7.10;;;4.30;;
31206;SDS011;17834;52.992;8.856;2023-07-30T00:49:15;6.20;;;3.75;;
31206;SDS011;17834;52.992;8.856;2023-07-30T00:51:41;9.00;;;5.28;;
31206;SDS011;17834;52.992;8.856;2023-07-30T00:54:07;8.07;;;4.28;;
31206;SDS011;17834;52.992;8.856;2023-07-30T00:56:33;5.65;;;3.63;;
31206;SDS011;17834;52.992;8.856;2023-07-30T00:58:59;5.43;;;3.35;;
31206;SDS011;17834;52.992;8.856;2023-07-30T01:01:25;8.43;;;3.58;;
31206;SDS011;17834;52.992;8.856;2023-07-30T01:03:51;8.13;;;4.32;;
31206;SDS011;17834;52.992;8.856;2023-07-30T01:06:16;9.27;;;4.22;;
31206;SDS011;17834;52.992;8.856;2023-07-30T01:08:43;6.20;;;3.35;;
31206;SDS011;17834;52.992;8.856;2023-07-30T01:11:08;6.68;;;3.78;;
31206;SDS011;17834;52.992;8.856;2023-07-30T01:13:35;5.93;;;3.40;;
31206;SDS011;17834;52.992;8.856;2023-07-30T01:16:01;6.93;;;3.17;;
31206;SDS011;17834;52.992;8.856;2023-07-30T01:18:28;6.38;;;3.83;;
31206;SDS011;17834;52.992;8.856;2023-07-30T01:20:53;7.78;;;4.00;;
31206;SDS011;17834;52.992;8.856;2023-07-30T01:23:22;6.38;;;3.90;;
31206;SDS011;17834;52.992;8.856;2023-07-30T01:25:47;7.50;;;4.00;;
31206;SDS011;17834;52.992;8.856;2023-07-30T01:28:25;8.25;;;4.43;;
31206;SDS011;17834;52.992;8.856;2023-07-30T01:30:52;7.47;;;3.85;;
31206;SDS011;17834;52.992;8.856;2023-07-30T01:33:20;7.68;;;3.90;;
31206;SDS011;17834;52.992;8.856;2023-07-30T01:35:45;7.47;;;3.33;;
31206;SDS011;17834;52.992;8.856;2023-07-30T01:38:11;8.32;;;4.18;;
31206;SDS011;17834;52.992;8.856;2023-07-30T01:40:37;5.63;;;3.08;;
31206;SDS011;17834;52.992;8.856;2023-07-30T01:43:03;5.93;;;3.50;;
31206;SDS011;17834;52.992;8.856;2023-07-30T01:45:29;7.13;;;4.30;;
31206;SDS011;17834;52.992;8.856;2023-07-30T01:47:54;9.32;;;4.60;;
31206;SDS011;17834;52.992;8.856;2023-07-30T01:50:20;5.90;;;3.63;;
31206;SDS011;17834;52.992;8.856;2023-07-30T01:52:45;7.75;;;3.75;;
31206;SDS011;17834;52.992;8.856;2023-07-30T01:55:11;8.45;;;4.28;;
31206;SDS011;17834;52.992;8.856;2023-07-30T01:57:37;7.20;;;3.85;;
31206;SDS011;17834;52.992;8.856;2023-07-30T02:00:02;6.63;;;4.18;;
31206;SDS011;17834;52.992;8.856;2023-07-30T02:02:28;7.75;;;4.63;;
31206;SDS011;17834;52.992;8.856;2023-07-30T02:04:54;5.35;;;3.28;;
31206;SDS011;17834;52.992;8.856;2023-07-30T02:07:19;7.45;;;4.15;;
31206;SDS011;17834;52.992;8.856;2023-07-30T02:09:45;7.55;;;3.67;;
31206;SDS011;17834;52.992;8.856;2023-07-30T02:12:10;12.57;;;4.18;;
31206;SDS011;17834;52.992;8.856;2023-07-30T02:14:36;5.90;;;3.78;;
31206;SDS011;17834;52.992;8.856;2023-07-30T02:17:01;7.55;;;3.88;;
31206;SDS011;17834;52.992;8.856;2023-07-30T02:19:27;11.32;;;4.28;;
31206;SDS011;17834;52.992;8.856;2023-07-30T02:21:53;7.75;;;3.97;;
31206;SDS011;17834;52.992;8.856;2023-07-30T02:24:18;7.63;;;3.97;;
31206;SDS011;17834;52.992;8.856;2023-07-30T02:26:44;7.45;;;4.45;;
31206;SDS011;17834;52.992;8.856;2023-07-30T02:29:09;6.50;;;4.20;;
31206;SDS011;17834;52.992;8.856;2023-07-30T02:31:35;9.52;;;4.85;;
31206;SDS011;17834;52.992;8.856;2023-07-30T02:34:00;8.38;;;4.57;;
31206;SDS011;17834;52.992;8.856;2023-07-30T02:36:26;7.60;;;4.93;;
31206;SDS011;17834;52.992;8.856;2023-07-30T02:38:51;8.60;;;5.05;;
31206;SDS011;17834;52.992;8.856;2023-07-30T02:41:17;10.25;;;5.43;;
31206;SDS011;17834;52.992;8.856;2023-07-30T02:43:42;11.05;;;5.45;;
31206;SDS011;17834;52.992;8.856;2023-07-30T02:46:08;10.35;;;6.00;;
31206;SDS011;17834;52.992;8.856;2023-07-30T02:48:34;10.15;;;5.18;;
31206;SDS011;17834;52.992;8.856;2023-07-30T02:50:59;11.75;;;5.88;;
31206;SDS011;17834;52.992;8.856;2023-07-30T02:53:25;8.30;;;5.03;;
31206;SDS011;17834;52.992;8.856;2023-07-30T02:55:50;12.85;;;5.30;;
31206;SDS011;17834;52.992;8.856;2023-07-30T02:58:16;8.55;;;5.35;;
31206;SDS011;17834;52.992;8.856;2023-07-30T03:00:41;10.25;;;5.88;;
31206;SDS011;17834;52.992;8.856;2023-07-30T03:03:07;12.85;;;5.78;;
31206;SDS011;17834;52.992;8.856;2023-07-30T03:05:32;9.80;;;5.63;;
31206;SDS011;17834;52.992;8.856;2023-07-30T03:07:58;13.13;;;5.93;;
31206;SDS011;17834;52.992;8.856;2023-07-30T03:10:23;11.95;;;6.03;;
31206;SDS011;17834;52.992;8.856;2023-07-30T03:12:49;13.27;;;5.90;;
31206;SDS011;17834;52.992;8.856;2023-07-30T03:15:14;10.45;;;5.93;;
31206;SDS011;17834;52.992;8.856;2023-07-30T03:17:40;8.55;;;4.82;;
31206;SDS011;17834;52.992;8.856;2023-07-30T03:20:06;11.52;;;5.43;;
31206;SDS011;17834;52.992;8.856;2023-07-30T03:22:32;12.10;;;5.45;;
31206;SDS011;17834;52.992;8.856;2023-07-30T03:24:57;13.18;;;4.97;;
31206;SDS011;17834;52.992;8.856;2023-07-30T03:27:23;9.65;;;4.97;;
31206;SDS011;17834;52.992;8.856;2023-07-30T03:29:49;12.98;;;5.20;;
31206;SDS011;17834;52.992;8.856;2023-07-30T03:32:14;12.32;;;5.95;;
31206;SDS011;17834;52.992;8.856;2023-07-30T03:34:40;9.82;;;5.60;;
31206;SDS011;17834;52.992;8.856;2023-07-30T03:37:05;10.57;;;5.32;;
31206;SDS011;17834;52.992;8.856;2023-07-30T03:39:31;12.10;;;5.13;;
31206;SDS011;17834;52.992;8.856;2023-07-30T03:41:56;16.30;;;5.22;;
31206;SDS011;17834;52.992;8.856;2023-07-30T03:44:22;14.07;;;5.05;;
31206;SDS011;17834;52.992;8.856;2023-07-30T03:46:47;11.77;;;4.72;;
31206;SDS011;17834;52.992;8.856;2023-07-30T03:49:13;11.20;;;5.15;;
31206;SDS011;17834;52.992;8.856;2023-07-30T03:51:39;13.00;;;5.80;;
31206;SDS011;17834;52.992;8.856;2023-07-30T03:54:04;9.60;;;5.00;;
31206;SDS011;17834;52.992;8.856;2023-07-30T03:56:30;11.23;;;4.35;;
31206;SDS011;17834;52.992;8.856;2023-07-30T03:58:56;13.20;;;5.22;;
31206;SDS011;17834;52.992;8.856;2023-07-30T04:01:21;10.35;;;4.70;;
31206;SDS011;17834;52.992;8.856;2023-07-30T04:03:47;11.40;;;4.63;;
31206;SDS011;17834;52.992;8.856;2023-07-30T04:06:12;9.05;;;4.15;;
31206;SDS011;17834;52.992;8.856;2023-07-30T04:08:38;11.55;;;3.95;;
31206;SDS011;17834;52.992;8.856;2023-07-30T04:11:03;13.25;;;4.20;;
31206;SDS011;17834;52.992;8.856;2023-07-30T04:13:29;15.65;;;4.97;;
31206;SDS011;17834;52.992;8.856;2023-07-30T04:15:54;9.35;;;4.00;;
31206;SDS011;17834;52.992;8.856;2023-07-30T04:18:20;9.18;;;3.95;;
31206;SDS011;17834;52.992;8.856;2023-07-30T04:20:47;9.68;;;3.72;;
31206;SDS011;17834;52.992;8.856;2023-07-30T04:23:13;9.65;;;3.83;;
31206;SDS011;17834;52.992;8.856;2023-07-30T04:25:38;10.85;;;3.85;;
31206;SDS011;17834;52.992;8.856;2023-07-30T04:28:04;13.10;;;4.03;;
31206;SDS011;17834;52.992;8.856;2023-07-30T04:30:29;10.15;;;3.92;;
31206;SDS011;17834;52.992;8.856;2023-07-30T04:32:55;10.07;;;3.63;;
31206;SDS011;17834;52.992;8.856;2023-07-30T04:35:20;10.50;;;3.42;;
31206;SDS011;17834;52.992;8.856;2023-07-30T04:37:46;10.40;;;3.42;;
31206;SDS011;17834;52.992;8.856;2023-07-30T04:40:11;11.90;;;3.75;;
31206;SDS011;17834;52.992;8.856;2023-07-30T04:42:37;12.80;;;3.97;;
31206;SDS011;17834;52.992;8.856;2023-07-30T04:45:02;12.73;;;3.83;;
31206;SDS011;17834;52.992;8.856;2023-07-30T04:47:28;14.60;;;5.10;;
31206;SDS011;17834;52.992;8.856;2023-07-30T04:49:54;9.93;;;2.97;;
31206;SDS011;17834;52.992;8.856;2023-07-30T04:52:19;10.27;;;2.90;;
31206;SDS011;17834;52.992;8.856;2023-07-30T04:54:45;8.48;;;3.38;;
31206;SDS011;17834;52.992;8.856;2023-07-30T04:57:11;8.27;;;2.83;;
31206;SDS011;17834;52.992;8.856;2023-07-30T04:59:36;4.95;;;2.55;;
31206;SDS011;17834;52.992;8.856;2023-07-30T05:02:02;8.35;;;2.45;;
31206;SDS011;17834;52.992;8.856;2023-07-30T05:04:27;9.80;;;2.65;;
31206;SDS011;17834;52.992;8.856;2023-07-30T05:06:53;6.32;;;2.40;;
31206;SDS011;17834;52.992;8.856;2023-07-30T05:09:19;6.47;;;1.98;;
31206;SDS011;17834;52.992;8.856;2023-07-30T05:11:44;8.35;;;2.10;;
31206;SDS011;17834;52.992;8.856;2023-07-30T05:14:10;8.52;;;1.88;;
31206;SDS011;17834;52.992;8.856;2023-07-30T05:16:35;5.43;;;1.85;;
31206;SDS011;17834;52.992;8.856;2023-07-30T05:19:01;10.10;;;2.17;;
31206;SDS011;17834;52.992;8.856;2023-07-30T05:21:27;8.98;;;2.58;;
31206;SDS011;17834;52.992;8.856;2023-07-30T05:23:53;9.32;;;2.08;;
31206;SDS011;17834;52.992;8.856;2023-07-30T05:26:18;11.50;;;4.57;;
31206;SDS011;17834;52.992;8.856;2023-07-30T05:28:44;7.70;;;3.08;;
31206;SDS011;17834;52.992;8.856;2023-07-30T05:31:09;9.05;;;2.85;;
31206;SDS011;17834;52.992;8.856;2023-07-30T05:33:35;7.15;;;2.70;;
31206;SDS011;17834;52.992;8.856;2023-07-30T05:36:00;6.40;;;2.08;;
31206;SDS011;17834;52.992;8.856;2023-07-30T05:38:26;5.25;;;1.88;;
31206;SDS011;17834;52.992;8.856;2023-07-30T05:40:51;7.65;;;2.00;;
31206;SDS011;17834;52.992;8.856;2023-07-30T05:43:17;10.45;;;2.05;;
31206;SDS011;17834;52.992;8.856;2023-07-30T05:45:42;6.38;;;2.13;;
31206;SDS011;17834;52.992;8.856;2023-07-30T05:48:08;7.10;;;2.30;;
31206;SDS011;17834;52.992;8.856;2023-07-30T05:50:34;5.45;;;2.03;;
31206;SDS011;17834;52.992;8.856;2023-07-30T05:52:59;4.78;;;1.95;;
31206;SDS011;17834;52.992;8.856;2023-07-30T05:55:25;6.00;;;2.20;;
31206;SDS011;17834;52.992;8.856;2023-07-30T05:57:50;7.68;;;2.22;;
31206;SDS011;17834;52.992;8.856;2023-07-30T06:00:18;7.88;;;2.20;;
31206;SDS011;17834;52.992;8.856;2023-07-30T06:02:44;6.47;;;1.80;;
31206;SDS011;17834;52.992;8.856;2023-07-30T06:05:09;10.50;;;2.45;;
31206;SDS011;17834;52.992;8.856;2023-07-30T06:07:35;6.63;;;2.20;;
31206;SDS011;17834;52.992;8.856;2023-07-30T06:10:00;7.82;;;1.98;;
31206;SDS011;17834;52.992;8.856;2023-07-30T06:12:26;4.90;;;1.60;;
31206;SDS011;17834;52.992;8.856;2023-07-30T06:14:51;6.70;;;1.77;;
31206;SDS011;17834;52.992;8.856;2023-07-30T06:17:17;8.30;;;1.63;;
31206;SDS011;17834;52.992;8.856;2023-07-30T06:19:43;7.10;;;1.80;;
31206;SDS011;17834;52.992;8.856;2023-07-30T06:22:08;7.40;;;1.90;;
31206;SDS011;17834;52.992;8.856;2023-07-30T06:24:34;7.35;;;1.60;;
31206;SDS011;17834;52.992;8.856;2023-07-30T06:26:59;11.32;;;2.17;;
31206;SDS011;17834;52.992;8.856;2023-07-30T06:29:24;6.90;;;1.90;;
31206;SDS011;17834;52.992;8.856;2023-07-30T06:31:50;15.77;;;2.72;;
31206;SDS011;17834;52.992;8.856;2023-07-30T06:34:16;6.28;;;2.03;;
31206;SDS011;17834;52.992;8.856;2023-07-30T06:36:42;5.28;;;1.60;;
31206;SDS011;17834;52.992;8.856;2023-07-30T06:39:07;11.55;;;1.88;;
31206;SDS011;17834;52.992;8.856;2023-07-30T06:41:33;5.13;;;1.85;;
31206;SDS011;17834;52.992;8.856;2023-07-30T06:43:58;7.38;;;1.90;;
31206;SDS011;17834;52.992;8.856;2023-07-30T06:46:24;9.85;;;1.80;;
31206;SDS011;17834;52.992;8.856;2023-07-30T06:48:49;10.60;;;2.60;;
31206;SDS011;17834;52.992;8.856;2023-07-30T06:51:18;9.10;;;2.67;;
31206;SDS011;17834;52.992;8.856;2023-07-30T06:53:44;8.43;;;2.25;;
31206;SDS011;17834;52.992;8.856;2023-07-30T06:56:09;7.18;;;2.33;;
31206;SDS011;17834;52.992;8.856;2023-07-30T06:58:35;12.82;;;2.67;;
31206;SDS011;17834;52.992;8.856;2023-07-30T07:01:00;6.57;;;2.55;;
31206;SDS011;17834;52.992;8.856;2023-07-30T07:03:26;9.52;;;3.42;;
31206;SDS011;17834;52.992;8.856;2023-07-30T07:05:55;8.93;;;2.33;;
31206;SDS011;17834;52.992;8.856;2023-07-30T07:08:21;9.60;;;2.60;;
31206;SDS011;17834;52.992;8.856;2023-07-30T07:10:47;12.00;;;2.58;;
31206;SDS011;17834;52.992;8.856;2023-07-30T07:13:14;11.18;;;2.65;;
31206;SDS011;17834;52.992;8.856;2023-07-30T07:15:43;9.68;;;2.55;;
31206;SDS011;17834;52.992;8.856;2023-07-30T07:18:09;12.10;;;2.78;;
31206;SDS011;17834;52.992;8.856;2023-07-30T07:20:35;11.43;;;3.05;;
31206;SDS011;17834;52.992;8.856;2023-07-30T07:23:01;12.65;;;3.35;;
31206;SDS011;17834;52.992;8.856;2023-07-30T07:25:26;10.05;;;2.53;;
31206;SDS011;17834;52.992;8.856;2023-07-30T07:27:52;12.68;;;3.42;;
31206;SDS011;17834;52.992;8.856;2023-07-30T07:30:17;8.85;;;2.95;;
31206;SDS011;17834;52.992;8.856;2023-07-30T07:32:43;7.10;;;2.65;;
31206;SDS011;17834;52.992;8.856;2023-07-30T07:35:08;8.68;;;2.58;;
31206;SDS011;17834;52.992;8.856;2023-07-30T07:37:34;6.22;;;1.98;;
31206;SDS011;17834;52.992;8.856;2023-07-30T07:40:00;7.90;;;2.83;;
31206;SDS011;17834;52.992;8.856;2023-07-30T07:42:26;8.32;;;2.78;;
31206;SDS011;17834;52.992;8.856;2023-07-30T07:44:51;6.50;;;2.22;;
31206;SDS011;17834;52.992;8.856;2023-07-30T07:47:17;8.35;;;2.45;;
31206;SDS011;17834;52.992;8.856;2023-07-30T07:49:42;9.75;;;2.72;;
31206;SDS011;17834;52.992;8.856;2023-07-30T07:52:08;7.15;;;2.08;;
31206;SDS011;17834;52.992;8.856;2023-07-30T07:54:34;9.38;;;2.50;;
31206;SDS011;17834;52.992;8.856;2023-07-30T07:56:59;5.80;;;2.20;;
31206;SDS011;17834;52.992;8.856;2023-07-30T07:59:25;9.82;;;2.17;;
31206;SDS011;17834;52.992;8.856;2023-07-30T08:01:52;6.25;;;2.22;;
31206;SDS011;17834;52.992;8.856;2023-07-30T08:04:18;8.82;;;1.83;;
31206;SDS011;17834;52.992;8.856;2023-07-30T08:06:46;9.88;;;2.03;;
31206;SDS011;17834;52.992;8.856;2023-07-30T08:09:11;3.88;;;1.65;;
31206;SDS011;17834;52.992;8.856;2023-07-30T08:11:37;7.97;;;1.65;;
31206;SDS011;17834;52.992;8.856;2023-07-30T08:14:03;8.23;;;1.92;;
31206;SDS011;17834;52.992;8.856;2023-07-30T08:16:28;9.63;;;2.72;;
31206;SDS011;17834;52.992;8.856;2023-07-30T08:18:54;10.05;;;2.20;;
31206;SDS011;17834;52.992;8.856;2023-07-30T08:21:21;7.63;;;1.70;;
31206;SDS011;17834;52.992;8.856;2023-07-30T08:23:46;10.93;;;2.55;;
31206;SDS011;17834;52.992;8.856;2023-07-30T08:26:12;9.77;;;1.98;;
31206;SDS011;17834;52.992;8.856;2023-07-30T08:28:37;8.35;;;2.65;;
31206;SDS011;17834;52.992;8.856;2023-07-30T08:31:03;7.65;;;2.22;;
31206;SDS011;17834;52.992;8.856;2023-07-30T08:33:30;8.35;;;2.38;;
31206;SDS011;17834;52.992;8.856;2023-07-30T08:35:56;7.32;;;2.20;;
31206;SDS011;17834;52.992;8.856;2023-07-30T08:38:22;7.85;;;2.50;;
31206;SDS011;17834;52.992;8.856;2023-07-30T08:40:48;5.95;;;2.47;;
31206;SDS011;17834;52.992;8.856;2023-07-30T08:43:15;8.80;;;3.20;;
31206;SDS011;17834;52.992;8.856;2023-07-30T08:45:41;9.30;;;2.47;;
31206;SDS011;17834;52.992;8.856;2023-07-30T08:48:06;7.63;;;2.53;;
31206;SDS011;17834;52.992;8.856;2023-07-30T08:50:32;9.05;;;2.33;;
31206;SDS011;17834;52.992;8.856;2023-07-30T08:52:59;7.68;;;2.55;;
31206;SDS011;17834;52.992;8.856;2023-07-30T08:55:27;9.82;;;2.80;;
31206;SDS011;17834;52.992;8.856;2023-07-30T08:57:54;9.85;;;2.92;;
31206;SDS011;17834;52.992;8.856;2023-07-30T09:00:21;8.55;;;2.55;;
31206;SDS011;17834;52.992;8.856;2023-07-30T09:02:51;6.95;;;2.40;;
31206;SDS011;17834;52.992;8.856;2023-07-30T09:05:19;7.28;;;2.83;;
31206;SDS011;17834;52.992;8.856;2023-07-30T09:07:45;7.32;;;2.50;;
31206;SDS011;17834;52.992;8.856;2023-07-30T09:10:11;12.25;;;3.00;;
31206;SDS011;17834;52.992;8.856;2023-07-30T09:12:38;10.07;;;3.00;;
31206;SDS011;17834;52.992;8.856;2023-07-30T09:15:04;12.85;;;3.80;;
31206;SDS011;17834;52.992;8.856;2023-07-30T09:17:31;8.05;;;2.78;;
31206;SDS011;17834;52.992;8.856;2023-07-30T09:19:59;10.55;;;3.13;;
31206;SDS011;17834;52.992;8.856;2023-07-30T09:24:51;9.95;;;2.85;;
31206;SDS011;17834;52.992;8.856;2023-07-30T09:27:19;6.75;;;2.15;;
31206;SDS011;17834;52.992;8.856;2023-07-30T09:29:50;8.50;;;2.67;;
31206;SDS011;17834;52.992;8.856;2023-07-30T09:32:17;7.47;;;2.78;;
31206;SDS011;17834;52.992;8.856;2023-07-30T09:34:44;11.77;;;3.08;;
31206;SDS011;17834;52.992;8.856;2023-07-30T09:37:10;8.80;;;3.13;;
31206;SDS011;17834;52.992;8.856;2023-07-30T09:39:36;7.60;;;3.20;;
31206;SDS011;17834;52.992;8.856;2023-07-30T09:42:02;12.20;;;3.67;;
31206;SDS011;17834;52.992;8.856;2023-07-30T09:44:28;10.10;;;3.03;;
31206;SDS011;17834;52.992;8.856;2023-07-30T09:46:58;10.85;;;3.03;;
31206;SDS011;17834;52.992;8.856;2023-07-30T09:49:23;11.95;;;3.17;;
31206;SDS011;17834;52.992;8.856;2023-07-30T09:51:49;18.83;;;4.75;;
31206;SDS011;17834;52.992;8.856;2023-07-30T09:54:16;11.02;;;3.13;;
31206;SDS011;17834;52.992;8.856;2023-07-30T09:56:42;11.07;;;3.15;;
31206;SDS011;17834;52.992;8.856;2023-07-30T09:59:08;8.85;;;3.20;;
31206;SDS011;17834;52.992;8.856;2023-07-30T10:01:44;10.25;;;3.00;;
31206;SDS011;17834;52.992;8.856;2023-07-30T10:04:14;14.20;;;3.75;;
31206;SDS011;17834;52.992;8.856;2023-07-30T10:06:53;12.95;;;3.65;;
31206;SDS011;17834;52.992;8.856;2023-07-30T10:09:29;10.13;;;4.07;;
31206;SDS011;17834;52.992;8.856;2023-07-30T10:11:58;10.35;;;3.53;;
31206;SDS011;17834;52.992;8.856;2023-07-30T10:14:26;9.38;;;3.67;;
31206;SDS011;17834;52.992;8.856;2023-07-30T10:16:54;10.20;;;3.05;;
31206;SDS011;17834;52.992;8.856;2023-07-30T10:19:24;11.68;;;3.22;;
31206;SDS011;17834;52.992;8.856;2023-07-30T10:21:51;11.43;;;3.03;;
31206;SDS011;17834;52.992;8.856;2023-07-30T10:24:18;10.73;;;3.35;;
31206;SDS011;17834;52.992;8.856;2023-07-30T10:26:44;9.57;;;3.05;;
31206;SDS011;17834;52.992;8.856;2023-07-30T10:29:10;4.97;;;2.70;;
31206;SDS011;17834;52.992;8.856;2023-07-30T10:31:44;11.55;;;3.33;;
31206;SDS011;17834;52.992;8.856;2023-07-30T10:34:20;7.13;;;2.92;;
31206;SDS011;17834;52.992;8.856;2023-07-30T10:36:47;10.70;;;2.47;;
31206;SDS011;17834;52.992;8.856;2023-07-30T10:39:18;8.93;;;3.08;;
31206;SDS011;17834;52.992;8.856;2023-07-30T10:41:55;6.97;;;2.97;;
31206;SDS011;17834;52.992;8.856;2023-07-30T10:44:32;10.63;;;2.72;;
31206;SDS011;17834;52.992;8.856;2023-07-30T10:46:59;7.47;;;2.50;;
31206;SDS011;17834;52.992;8.856;2023-07-30T10:49:25;10.63;;;2.90;;
31206;SDS011;17834;52.992;8.856;2023-07-30T10:51:52;8.77;;;2.10;;
31206;SDS011;17834;52.992;8.856;2023-07-30T10:54:18;5.30;;;2.10;;
31206;SDS011;17834;52.992;8.856;2023-07-30T10:56:44;8.57;;;2.55;;
31206;SDS011;17834;52.992;8.856;2023-07-30T10:59:11;7.15;;;2.13;;
31206;SDS011;17834;52.992;8.856;2023-07-30T11:01:38;6.90;;;1.85;;
31206;SDS011;17834;52.992;8.856;2023-07-30T11:04:06;5.90;;;1.90;;
31206;SDS011;17834;52.992;8.856;2023-07-30T11:06:50;7.90;;;1.90;;
31206;SDS011;17834;52.992;8.856;2023-07-30T11:09:19;5.13;;;1.65;;
31206;SDS011;17834;52.992;8.856;2023-07-30T11:11:49;6.55;;;2.10;;
31206;SDS011;17834;52.992;8.856;2023-07-30T11:14:16;8.65;;;2.70;;
31206;SDS011;17834;52.992;8.856;2023-07-30T11:16:49;7.10;;;2.47;;
31206;SDS011;17834;52.992;8.856;2023-07-30T11:19:16;4.72;;;2.40;;
31206;SDS011;17834;52.992;8.856;2023-07-30T11:21:45;7.30;;;2.20;;
31206;SDS011;17834;52.992;8.856;2023-07-30T11:24:11;7.07;;;2.72;;
31206;SDS011;17834;52.992;8.856;2023-07-30T11:26:37;9.68;;;2.60;;
31206;SDS011;17834;52.992;8.856;2023-07-30T11:29:13;7.47;;;2.30;;
31206;SDS011;17834;52.992;8.856;2023-07-30T11:31:40;7.95;;;2.53;;
31206;SDS011;17834;52.992;8.856;2023-07-30T11:34:07;4.82;;;2.20;;
31206;SDS011;17834;52.992;8.856;2023-07-30T11:36:32;10.38;;;2.58;;
31206;SDS011;17834;52.992;8.856;2023-07-30T11:38:58;8.15;;;2.78;;
31206;SDS011;17834;52.992;8.856;2023-07-30T11:41:24;7.70;;;2.58;;
31206;SDS011;17834;52.992;8.856;2023-07-30T11:43:50;5.68;;;1.80;;
31206;SDS011;17834;52.992;8.856;2023-07-30T11:46:17;10.50;;;2.40;;
31206;SDS011;17834;52.992;8.856;2023-07-30T11:48:45;9.75;;;2.78;;
31206;SDS011;17834;52.992;8.856;2023-07-30T11:51:22;5.97;;;2.03;;
31206;SDS011;17834;52.992;8.856;2023-07-30T11:53:59;6.30;;;3.05;;
31206;SDS011;17834;52.992;8.856;2023-07-30T11:56:27;7.53;;;2.33;;
31206;SDS011;17834;52.992;8.856;2023-07-30T11:58:55;4.80;;;2.20;;
31206;SDS011;17834;52.992;8.856;2023-07-30T12:01:23;4.78;;;1.92;;
31206;SDS011;17834;52.992;8.856;2023-07-30T12:03:50;7.63;;;2.22;;
31206;SDS011;17834;52.992;8.856;2023-07-30T12:06:22;6.45;;;2.08;;
31206;SDS011;17834;52.992;8.856;2023-07-30T12:08:48;5.40;;;1.90;;
31206;SDS011;17834;52.992;8.856;2023-07-30T12:11:14;9.82;;;2.47;;
31206;SDS011;17834;52.992;8.856;2023-07-30T12:13:45;5.57;;;1.95;;
31206;SDS011;17834;52.992;8.856;2023-07-30T12:16:12;5.05;;;2.08;;
31206;SDS011;17834;52.992;8.856;2023-07-30T12:18:39;4.95;;;1.90;;
31206;SDS011;17834;52.992;8.856;2023-07-30T12:21:05;4.55;;;1.80;;
31206;SDS011;17834;52.992;8.856;2023-07-30T12:23:36;9.10;;;2.30;;
31206;SDS011;17834;52.992;8.856;2023-07-30T12:26:03;6.32;;;2.13;;
31206;SDS011;17834;52.992;8.856;2023-07-30T12:28:32;2.65;;;1.23;;
31206;SDS011;17834;52.992;8.856;2023-07-30T12:31:00;4.90;;;1.27;;
31206;SDS011;17834;52.992;8.856;2023-07-30T12:33:26;5.57;;;1.33;;
31206;SDS011;17834;52.992;8.856;2023-07-30T12:35:52;3.75;;;1.05;;
31206;SDS011;17834;52.992;8.856;2023-07-30T12:38:18;3.15;;;0.90;;
31206;SDS011;17834;52.992;8.856;2023-07-30T12:40:43;3.55;;;1.10;;
31206;SDS011;17834;52.992;8.856;2023-07-30T12:43:09;4.95;;;1.17;;
31206;SDS011;17834;52.992;8.856;2023-07-30T12:45:34;5.20;;;1.30;;
31206;SDS011;17834;52.992;8.856;2023-07-30T12:48:00;4.30;;;1.63;;
31206;SDS011;17834;52.992;8.856;2023-07-30T12:50:27;4.70;;;1.90;;
31206;SDS011;17834;52.992;8.856;2023-07-30T12:52:52;5.15;;;2.10;;
31206;SDS011;17834;52.992;8.856;2023-07-30T12:55:18;7.22;;;2.10;;
31206;SDS011;17834;52.992;8.856;2023-07-30T12:57:44;7.03;;;2.03;;
31206;SDS011;17834;52.992;8.856;2023-07-30T13:00:09;9.23;;;3.03;;
31206;SDS011;17834;52.992;8.856;2023-07-30T13:02:35;8.35;;;2.40;;
31206;SDS011;17834;52.992;8.856;2023-07-30T13:05:01;5.25;;;2.38;;
31206;SDS011;17834;52.992;8.856;2023-07-30T13:07:28;4.82;;;2.20;;
31206;SDS011;17834;52.992;8.856;2023-07-30T13:10:04;6.28;;;2.38;;
31206;SDS011;17834;52.992;8.856;2023-07-30T13:12:33;7.88;;;2.55;;
31206;SDS011;17834;52.992;8.856;2023-07-30T13:15:00;4.75;;;2.28;;
31206;SDS011;17834;52.992;8.856;2023-07-30T13:17:26;10.70;;;2.85;;
31206;SDS011;17834;52.992;8.856;2023-07-30T13:19:51;6.60;;;2.80;;
31206;SDS011;17834;52.992;8.856;2023-07-30T13:22:17;8.35;;;3.00;;
31206;SDS011;17834;52.992;8.856;2023-07-30T13:24:42;6.15;;;2.63;;
31206;SDS011;17834;52.992;8.856;2023-07-30T13:27:08;5.32;;;2.60;;
31206;SDS011;17834;52.992;8.856;2023-07-30T13:29:34;8.20;;;2.35;;
31206;SDS011;17834;52.992;8.856;2023-07-30T13:31:59;3.13;;;1.90;;
31206;SDS011;17834;52.992;8.856;2023-07-30T13:34:25;3.60;;;2.20;;
31206;SDS011;17834;52.992;8.856;2023-07-30T13:36:51;6.38;;;2.38;;
31206;SDS011;17834;52.992;8.856;2023-07-30T13:39:17;5.18;;;1.77;;
31206;SDS011;17834;52.992;8.856;2023-07-30T13:41:42;6.43;;;2.13;;
31206;SDS011;17834;52.992;8.856;2023-07-30T13:44:08;5.03;;;2.10;;
31206;SDS011;17834;52.992;8.856;2023-07-30T13:46:34;3.25;;;1.90;;
31206;SDS011;17834;52.992;8.856;2023-07-30T13:49:00;6.63;;;2.10;;
31206;SDS011;17834;52.992;8.856;2023-07-30T13:51:26;5.65;;;2.03;;
31206;SDS011;17834;52.992;8.856;2023-07-30T13:53:56;4.82;;;1.80;;
31206;SDS011;17834;52.992;8.856;2023-07-30T13:56:23;7.53;;;2.20;;
31206;SDS011;17834;52.992;8.856;2023-07-30T13:58:48;5.55;;;2.38;;
31206;SDS011;17834;52.992;8.856;2023-07-30T14:01:14;4.32;;;1.60;;
31206;SDS011;17834;52.992;8.856;2023-07-30T14:03:40;5.05;;;1.88;;
31206;SDS011;17834;52.992;8.856;2023-07-30T14:06:06;6.07;;;1.98;;
31206;SDS011;17834;52.992;8.856;2023-07-30T14:08:31;4.30;;;2.03;;
31206;SDS011;17834;52.992;8.856;2023-07-30T14:10:57;6.80;;;2.78;;
31206;SDS011;17834;52.992;8.856;2023-07-30T14:13:23;5.95;;;2.35;;
31206;SDS011;17834;52.992;8.856;2023-07-30T14:15:49;5.43;;;2.75;;
31206;SDS011;17834;52.992;8.856;2023-07-30T14:18:15;8.57;;;2.88;;
31206;SDS011;17834;52.992;8.856;2023-07-30T14:20:40;6.47;;;2.28;;
31206;SDS011;17834;52.992;8.856;2023-07-30T14:23:06;5.95;;;2.78;;
31206;SDS011;17834;52.992;8.856;2023-07-30T14:25:32;6.78;;;2.83;;
31206;SDS011;17834;52.992;8.856;2023-07-30T14:27:57;6.80;;;3.00;;
31206;SDS011;17834;52.992;8.856;2023-07-30T14:30:23;9.05;;;3.25;;
31206;SDS011;17834;52.992;8.856;2023-07-30T14:32:49;6.57;;;2.53;;
31206;SDS011;17834;52.992;8.856;2023-07-30T14:35:14;5.53;;;2.95;;
31206;SDS011;17834;52.992;8.856;2023-07-30T14:37:40;6.70;;;2.85;;
31206;SDS011;17834;52.992;8.856;2023-07-30T14:40:05;5.20;;;2.60;;
31206;SDS011;17834;52.992;8.856;2023-07-30T14:42:31;6.18;;;2.30;;